Time;durP1;ratioP1;P1;durP2;ratioP2;P2;SDS_P1;SDS_P2;PMS_P1;PMS_P2;Temp;Humidity;BMP_temperature;BMP_pressure;BME280_temperature;BME280_humidity;BME280_pressure;Samples;Min_cycle;Max_cycle;Signal;HPM_P1;HPM_P2
2022/04/29 00:00:43;;;;;;;43.87;29.73;;;;;;;30.57;68.24;100667.53;5018577;28;70094;-31
2022/04/29 00:03:14;;;;;;;39.45;28.35;;;;;;;30.96;68.49;100737.81;5018376;28;66971;-31
2022/04/29 00:05:46;;;;;;;39.20;28.10;;;;;;;30.93;69.99;100747.22;5020794;28;68917;-33
2022/04/29 00:08:16;;;;;;;35.38;27.85;;;;;;;30.91;69.67;100746.59;5022786;28;66230;-34
2022/04/29 00:10:47;;;;;;;38.10;26.52;;;;;;;31.01;68.38;100746.91;5038956;28;70562;-34
2022/04/29 00:13:17;;;;;;;34.05;23.67;;;;;;;31.06;68.37;100732.69;5035107;28;65568;-34
2022/04/29 00:15:48;;;;;;;37.70;23.27;;;;;;;31.14;67.76;100746.75;5038943;28;69998;-34
2022/04/29 00:18:18;;;;;;;29.15;22.15;;;;;;;31.15;67.42;100732.16;5040694;28;66044;-33
2022/04/29 00:20:49;;;;;;;31.48;22.25;;;;;;;31.26;68.50;100752.28;5039818;28;69582;-34
2022/04/29 00:23:19;;;;;;;29.67;21.75;;;;;;;31.20;67.38;100717.94;5028040;28;66483;-35
2022/04/29 00:25:50;;;;;;;34.47;21.23;;;;;;;31.33;68.11;100738.63;5018887;28;70606;-36
2022/04/29 00:28:20;;;;;;;27.15;21.42;;;;;;;31.27;68.02;100734.13;5026135;28;66997;-37
2022/04/29 00:30:50;;;;;;;29.90;20.40;;;;;;;31.30;68.24;100739.09;5036790;28;70489;-35
2022/04/29 00:33:21;;;;;;;26.73;19.50;;;;;;;31.22;67.97;100720.41;5031018;28;66562;-34
2022/04/29 00:35:52;;;;;;;28.40;18.80;;;;;;;31.36;68.12;100744.44;5019454;28;70845;-35
2022/04/29 00:38:23;;;;;;;20.08;16.30;;;;;;;31.18;66.78;100728.19;5037381;28;65267;-34
2022/04/29 00:40:53;;;;;;;14.55;13.18;;;;;;;31.48;66.39;100768.94;5036880;28;69688;-35
2022/04/29 00:43:23;;;;;;;14.95;13.65;;;;;;;31.56;65.39;100765.88;5039128;28;66657;-33
2022/04/29 00:45:54;;;;;;;17.95;14.43;;;;;;;31.62;65.54;100769.56;5037718;28;69705;-33
2022/04/29 00:48:24;;;;;;;13.48;12.30;;;;;;;31.66;65.17;100769.97;5038215;28;65363;-33
2022/04/29 00:50:55;;;;;;;16.65;14.88;;;;;;;31.73;64.91;100778.81;5037416;28;70178;-34
2022/04/29 00:53:28;;;;;;;13.70;12.57;;;;;;;31.78;64.45;100793.34;5040962;28;65694;-32
2022/04/29 00:55:59;;;;;;;13.55;12.25;;;;;;;31.69;64.78;100766.78;5040771;28;70075;-33
2022/04/29 00:58:37;;;;;;;13.35;12.20;;;;;;;31.35;64.36;100698.59;5041789;28;65998;-34
2022/04/29 01:01:08;;;;;;;13.55;12.20;;;;;;;31.56;63.96;100727.94;5040928;28;70531;-34
2022/04/29 01:03:38;;;;;;;12.60;11.65;;;;;;;31.93;63.98;100776.72;5041678;28;66388;-34
2022/04/29 01:06:08;;;;;;;12.73;11.82;;;;;;;31.91;63.87;100773.41;5042239;28;70449;-34
2022/04/29 01:08:39;;;;;;;12.57;11.57;;;;;;;31.99;64.07;100764.94;5042167;28;66283;-33
2022/04/29 01:11:10;;;;;;;13.90;12.52;;;;;;;31.88;63.43;100746.72;5041796;28;70221;-33
2022/04/29 01:13:41;;;;;;;12.80;11.70;;;;;;;32.04;63.03;100770.50;5042991;28;66130;-33
2022/04/29 01:16:11;;;;;;;12.98;11.73;;;;;;;32.01;63.17;100762.84;5040620;28;69529;-33
2022/04/29 01:18:43;;;;;;;12.48;11.50;;;;;;;32.09;62.63;100779.81;5040627;28;65717;-32
2022/04/29 01:21:13;;;;;;;13.90;12.57;;;;;;;32.05;62.62;100779.47;5042454;28;69229;-33
2022/04/29 01:23:44;;;;;;;12.67;11.57;;;;;;;32.07;62.16;100790.06;5041262;28;65699;-33
2022/04/29 01:26:15;;;;;;;12.85;11.80;;;;;;;32.14;62.29;100798.97;5040414;28;69252;-33
2022/04/29 01:28:52;;;;;;;11.52;10.52;;;;;;;31.70;62.16;100728.56;5041741;28;66628;-33
2022/04/29 01:31:24;;;;;;;13.20;11.85;;;;;;;31.71;61.79;100734.84;5040914;28;70481;-33
2022/04/29 01:33:56;;;;;;;12.18;11.27;;;;;;;32.10;61.51;100797.78;5040331;28;65874;-32
2022/04/29 01:36:26;;;;;;;12.35;11.45;;;;;;;32.20;61.51;100825.16;5041102;28;68969;-33
2022/04/29 01:38:57;;;;;;;12.65;11.48;;;;;;;32.22;61.85;100818.47;5041276;28;65448;-34
2022/04/29 01:41:27;;;;;;;12.68;11.63;;;;;;;32.13;61.57;100809.00;5041975;28;69545;-34
2022/04/29 01:43:58;;;;;;;12.00;11.18;;;;;;;32.16;61.64;100811.25;5040623;28;66923;-33
2022/04/29 01:46:28;;;;;;;12.27;11.27;;;;;;;32.16;61.26;100815.84;5041066;28;70192;-33
2022/04/29 01:49:19;;;;;;;12.35;11.27;;;;;;;32.26;61.18;100830.53;5041853;28;66083;-33
2022/04/29 01:51:59;;;;;;;12.55;11.38;;;;;;;32.28;61.10;100822.13;5040498;28;70131;-33
2022/04/29 01:54:30;;;;;;;12.90;11.90;;;;;;;32.20;60.48;100809.72;5041619;28;65391;-33
2022/04/29 01:57:08;;;;;;;12.25;10.70;;;;;;;32.32;60.94;100828.78;5041311;28;70417;-34
2022/04/29 01:59:39;;;;;;;12.25;11.25;;;;;;;32.28;61.12;100827.56;5041631;28;66879;-33
2022/04/29 02:02:31;;;;;;;11.68;10.88;;;;;;;32.24;60.79;100820.94;5041097;28;70584;-33
2022/04/29 02:05:04;;;;;;;13.88;11.57;;;;;;;32.29;60.58;100834.66;5043604;28;43042;-33
2022/04/29 02:07:35;;;;;;;13.85;11.98;;;;;;;32.22;60.65;100820.34;5041038;28;71131;-33
2022/04/29 02:10:06;;;;;;;11.67;10.60;;;;;;;32.32;60.42;100827.91;5039638;28;66064;-32
2022/04/29 02:12:38;;;;;;;12.20;11.07;;;;;;;32.29;60.69;100834.66;5041217;28;70000;-34
2022/04/29 02:15:26;;;;;;;12.00;10.90;;;;;;;32.38;60.48;100844.13;5041207;28;65629;-33
2022/04/29 02:18:03;;;;;;;10.93;10.07;;;;;;;32.30;60.43;100828.16;5038453;28;70298;-33
2022/04/29 02:20:33;;;;;;;10.33;9.80;;;;;;;32.37;60.15;100842.44;5042150;28;65360;-33
2022/04/29 02:23:04;;;;;;;11.02;10.13;;;;;;;32.39;60.43;100850.38;5039430;28;69679;-34
2022/04/29 02:25:35;;;;;;;11.55;10.32;;;;;;;32.39;60.21;100844.94;5040428;28;66383;-33
2022/04/29 02:28:05;;;;;;;10.68;10.00;;;;;;;32.40;60.26;100847.44;5038952;28;69485;-33
2022/04/29 02:30:37;;;;;;;14.43;9.98;;;;;;;32.34;59.99;100842.91;5039818;28;65298;-33
2022/04/29 02:33:07;;;;;;;11.68;10.45;;;;;;;32.45;60.13;100850.25;5041508;28;70324;-33
2022/04/29 02:35:38;;;;;;;11.18;10.43;;;;;;;32.39;60.27;100840.34;5040997;28;66747;-33
2022/04/29 02:38:08;;;;;;;11.85;10.93;;;;;;;32.46;59.98;100851.97;5039464;28;69414;-33
2022/04/29 02:40:39;;;;;;;11.13;10.10;;;;;;;32.47;59.85;100856.34;5041573;28;65336;-34
2022/04/29 02:43:10;;;;;;;11.95;10.75;;;;;;;32.39;60.07;100844.94;5040011;28;71061;-33
2022/04/29 02:45:40;;;;;;;10.90;10.07;;;;;;;32.46;60.12;100846.53;5041307;28;66897;-33
2022/04/29 02:48:11;;;;;;;11.77;10.68;;;;;;;32.46;60.20;100851.16;5039972;28;70163;-33
2022/04/29 02:50:41;;;;;;;10.23;9.43;;;;;;;32.50;60.00;100857.75;5041328;28;66238;-32
2022/04/29 02:53:14;;;;;;;10.43;9.68;;;;;;;32.51;60.03;100856.69;5041569;28;70791;-33
2022/04/29 02:55:44;;;;;;;13.55;10.30;;;;;;;32.46;60.20;100843.81;5039864;28;66138;-33
2022/04/29 02:58:34;;;;;;;11.82;11.00;;;;;;;32.44;60.62;100843.19;5042127;28;69567;-33
2022/04/29 03:01:04;;;;;;;12.02;10.95;;;;;;;32.45;59.81;100844.84;5040748;28;66328;-33
2022/04/29 03:03:35;;;;;;;13.38;11.00;;;;;;;32.52;60.25;100866.50;5039494;28;70503;-34
2022/04/29 03:06:06;;;;;;;11.93;10.93;;;;;;;32.35;60.63;100831.03;5041755;28;66250;-33
2022/04/29 03:08:37;;;;;;;12.73;10.85;;;;;;;32.44;60.36;100836.94;5041147;28;70403;-33
2022/04/29 03:11:10;;;;;;;12.38;11.07;;;;;;;32.45;60.46;100828.53;5038912;28;66094;-34
2022/04/29 03:13:40;;;;;;;12.00;10.65;;;;;;;32.51;60.43;100853.16;5022197;28;69726;-33
2022/04/29 03:16:14;;;;;;;12.52;11.38;;;;;;;32.50;60.60;100846.91;5039701;28;66237;-33
2022/04/29 03:18:45;;;;;;;11.43;10.50;;;;;;;32.42;60.35;100833.63;4989523;28;70524;-34
2022/04/29 03:21:18;;;;;;;12.47;11.13;;;;;;;32.51;60.28;100847.72;5021682;28;66192;-34
2022/04/29 03:23:49;;;;;;;12.02;11.10;;;;;;;32.52;60.46;100844.78;5019928;28;69029;-33
2022/04/29 03:26:21;;;;;;;12.25;11.20;;;;;;;32.49;60.65;100848.78;5019245;28;66243;-35
2022/04/29 03:28:51;;;;;;;12.30;11.20;;;;;;;32.51;60.61;100848.53;5030854;28;70698;-35
2022/04/29 03:31:22;;;;;;;11.68;10.77;;;;;;;32.49;60.95;100851.50;5038296;28;65573;-33
2022/04/29 03:34:10;;;;;;;11.45;10.57;;;;;;;32.44;60.71;100851.34;5040776;28;70171;-33
2022/04/29 03:36:41;;;;;;;13.60;10.90;;;;;;;32.52;60.60;100861.06;5038088;28;65768;-32
2022/04/29 03:39:11;;;;;;;11.35;10.32;;;;;;;32.52;60.65;100862.97;5038376;28;69553;-34
2022/04/29 03:41:42;;;;;;;11.57;10.68;;;;;;;32.49;60.74;100846.06;5039257;28;66088;-33
2022/04/29 03:44:13;;;;;;;11.57;10.68;;;;;;;32.52;60.78;100857.53;5037593;28;69970;-33
2022/04/29 03:46:44;;;;;;;10.90;10.03;;;;;;;32.46;60.66;100841.13;5038979;28;65332;-33
2022/04/29 03:49:37;;;;;;;14.07;10.30;;;;;;;32.41;60.53;100832.81;5038890;28;69669;-34
2022/04/29 03:52:15;;;;;;;10.65;9.75;;;;;;;32.46;60.33;100841.13;5037280;28;66199;-34
2022/04/29 03:54:45;;;;;;;10.15;9.30;;;;;;;32.39;60.48;100821.34;5037810;28;70145;-34
2022/04/29 03:57:17;;;;;;;10.17;8.93;;;;;;;32.43;60.77;100824.41;5037369;28;66517;-32
2022/04/29 03:59:49;;;;;;;10.35;9.50;;;;;;;32.42;60.61;100825.47;5038369;28;70592;-33
2022/04/29 04:02:19;;;;;;;11.27;9.70;;;;;;;32.53;60.66;100840.19;5038919;28;66326;-32
2022/04/29 04:04:50;;;;;;;9.60;8.45;;;;;;;32.51;60.55;100832.25;5037866;28;69581;-33
2022/04/29 04:07:21;;;;;;;10.45;9.40;;;;;;;32.49;60.47;100832.50;5022685;28;66073;-33
2022/04/29 04:10:05;;;;;;;9.55;8.85;;;;;;;32.09;60.62;100756.22;5038942;28;69508;-33
2022/04/29 04:12:43;;;;;;;;;;;;;;;32.23;61.82;100843.72;5055740;28;66919;-33
2022/04/29 04:15:36;;;;;;;8.48;7.88;;;;;;;32.49;60.65;100827.06;5039879;28;70784;-33
2022/04/29 04:18:07;;;;;;;7.82;7.20;;;;;;;32.55;60.58;100838.88;5039130;28;65684;-35
2022/04/29 04:20:38;;;;;;;10.23;8.35;;;;;;;32.53;60.98;100834.75;5021320;28;69090;-33
2022/04/29 04:23:09;;;;;;;8.35;7.57;;;;;;;32.57;60.36;100830.50;5038915;28;65680;-33
2022/04/29 04:25:41;;;;;;;8.25;7.53;;;;;;;32.55;60.85;100828.03;5039329;28;69866;-33
2022/04/29 04:28:15;;;;;;;8.10;7.50;;;;;;;32.56;60.43;100820.69;5057332;28;64991;-33
2022/04/29 04:30:57;;;;;;;8.02;7.35;;;;;;;32.54;60.39;100811.94;5041360;28;70105;-34
2022/04/29 04:33:40;;;;;;;8.35;7.90;;;;;;;32.56;60.78;100809.84;5038096;28;65468;-34
2022/04/29 04:36:11;;;;;;;8.00;7.50;;;;;;;32.57;60.26;100803.34;5006427;28;70128;-33
2022/04/29 04:38:44;;;;;;;8.40;7.82;;;;;;;32.55;60.76;100800.06;5006912;28;65807;-33
2022/04/29 04:41:16;;;;;;;8.05;7.50;;;;;;;32.43;60.60;100787.25;5022775;28;70249;-33
2022/04/29 04:43:49;;;;;;;7.07;6.68;;;;;;;32.44;60.42;100783.47;5023198;28;66293;-33
2022/04/29 04:46:20;;;;;;;7.85;7.30;;;;;;;32.55;60.42;100790.00;5020327;28;70762;-33
2022/04/29 04:49:14;;;;;;;8.23;6.78;;;;;;;32.55;60.82;100794.63;5023157;28;65757;-34
2022/04/29 04:52:10;;;;;;;7.55;6.85;;;;;;;32.54;60.70;100793.78;5022218;28;70153;-33
2022/04/29 04:54:41;;;;;;;7.15;6.75;;;;;;;32.52;60.61;100784.22;5039740;28;65859;-34
2022/04/29 04:57:11;;;;;;;7.13;6.53;;;;;;;32.55;60.58;100775.63;5020893;28;69710;-33
2022/04/29 04:59:42;;;;;;;6.07;5.78;;;;;;;32.54;60.74;100769.34;5021738;28;66469;-33
2022/04/29 05:02:13;;;;;;;6.68;6.07;;;;;;;32.48;60.55;100762.97;5005425;28;70310;-33
2022/04/29 05:05:02;;;;;;;6.68;6.10;;;;;;;32.40;60.64;100738.84;5021456;28;65434;-33
2022/04/29 05:07:51;;;;;;;6.00;5.60;;;;;;;32.54;60.73;100754.94;5020938;28;69698;-34
2022/04/29 05:10:22;;;;;;;6.72;6.28;;;;;;;32.55;60.53;100751.16;5021969;28;65980;-33
2022/04/29 05:12:53;;;;;;;6.20;5.80;;;;;;;32.46;60.62;100737.94;5021967;28;69628;-34
2022/04/29 05:15:30;;;;;;;6.38;5.90;;;;;;;32.52;60.52;100741.59;5026661;28;65876;-34
2022/04/29 05:18:04;;;;;;;5.75;5.35;;;;;;;32.54;60.58;100738.63;5041640;28;70041;-34
2022/04/29 05:20:50;;;;;;;6.63;6.13;;;;;;;32.49;60.82;100729.31;5025126;28;66117;-38
2022/04/29 05:23:22;;;;;;;6.10;5.70;;;;;;;32.43;60.59;100713.94;5041754;28;70336;-33
2022/04/29 05:26:21;;;;;;;5.45;5.15;;;;;;;32.53;60.64;100726.13;5042817;28;66551;-34
2022/04/29 05:29:12;;;;;;;4.68;4.38;;;;;;;32.46;60.32;100708.06;5020094;28;69729;-32
2022/04/29 05:32:02;;;;;;;8.27;4.53;;;;;;;32.55;60.50;100718.59;5042880;28;65438;-33
2022/04/29 05:34:58;;;;;;;5.30;4.82;;;;;;;32.18;60.31;100659.03;5022782;28;69566;-33
2022/04/29 05:37:47;;;;;;;4.65;4.35;;;;;;;32.54;60.67;100709.63;5040139;28;66057;-33
2022/04/29 05:43:09;;;;;;;4.40;4.10;;;;;;;32.54;60.57;100690.63;5041545;28;66620;-34
2022/04/29 05:45:39;;;;;;;4.88;4.47;;;;;;;32.56;60.45;100690.34;5041105;28;70560;-34
2022/04/29 05:48:11;;;;;;;5.45;4.13;;;;;;;32.52;60.17;100681.88;5041398;28;65578;-33
2022/04/29 05:50:41;;;;;;;3.97;3.67;;;;;;;32.57;60.36;100673.00;5040450;28;69051;-33
2022/04/29 05:53:12;;;;;;;3.35;3.15;;;;;;;32.59;60.30;100677.13;5041143;28;66539;-33
2022/04/29 05:55:48;;;;;;;3.83;3.63;;;;;;;32.55;60.13;100659.66;5022983;28;69929;-34
2022/04/29 05:58:21;;;;;;;3.75;3.55;;;;;;;32.58;60.34;100653.75;5041189;28;65435;-32
2022/04/29 06:01:12;;;;;;;3.42;3.22;;;;;;;32.62;60.26;100654.09;5040761;28;69618;-33
2022/04/29 06:03:42;;;;;;;3.60;3.40;;;;;;;32.55;59.96;100637.13;5041465;28;65519;-33
2022/04/29 06:06:14;;;;;;;4.23;3.93;;;;;;;32.62;59.98;100652.22;5040450;28;69946;-33
2022/04/29 06:08:46;;;;;;;3.60;3.30;;;;;;;32.65;59.98;100654.47;5040360;28;65419;-32
2022/04/29 06:11:18;;;;;;;3.83;3.53;;;;;;;32.57;59.88;100629.53;5041514;28;70100;-33
2022/04/29 06:13:48;;;;;;;3.47;3.28;;;;;;;32.69;59.88;100652.91;5025088;28;66259;-33
2022/04/29 06:16:38;;;;;;;3.47;3.28;;;;;;;32.64;59.77;100635.69;5042571;28;70248;-34
2022/04/29 06:19:39;;;;;;;3.35;3.15;;;;;;;32.68;59.77;100632.28;5021545;28;67104;-33
2022/04/29 06:22:33;;;;;;;3.55;3.35;;;;;;;32.65;59.48;100631.91;5012285;28;70072;-32
2022/04/29 06:25:04;;;;;;;3.58;3.38;;;;;;;32.64;59.56;100624.81;5040856;28;66077;-33
2022/04/29 06:27:41;;;;;;;3.30;3.10;;;;;;;32.70;59.28;100629.31;5040514;28;69251;-33
2022/04/29 06:30:12;;;;;;;3.35;3.10;;;;;;;32.64;60.07;100624.81;5039182;28;65125;-33
2022/04/29 06:33:16;;;;;;;3.40;3.15;;;;;;;32.63;59.58;100613.16;5039202;28;69477;-33
2022/04/29 06:35:50;;;;;;;4.07;3.78;;;;;;;32.69;59.53;100606.75;5041338;28;66155;-34
2022/04/29 06:38:21;;;;;;;4.25;3.72;;;;;;;32.70;59.59;100602.13;5040809;28;69513;-34
2022/04/29 06:40:58;;;;;;;3.30;3.10;;;;;;;32.69;59.57;100589.63;5039984;28;66337;-34
2022/04/29 06:43:34;;;;;;;4.38;4.03;;;;;;;32.69;59.56;100590.47;5040907;28;69562;-33
2022/04/29 06:46:37;;;;;;;3.80;3.50;;;;;;;32.63;59.48;100572.41;5018457;28;66517;-33
2022/04/29 06:49:26;;;;;;;3.90;3.70;;;;;;;32.71;59.52;100576.66;5040361;28;70109;-34
2022/04/29 06:52:14;;;;;;;4.00;3.80;;;;;;;32.72;59.25;100564.72;5041243;28;66387;-33
2022/04/29 06:55:08;;;;;;;3.83;3.63;;;;;;;32.74;59.42;100564.47;5029606;28;70321;-34
2022/04/29 06:57:38;;;;;;;3.55;3.35;;;;;;;32.68;59.54;100544.50;5040515;28;66441;-34
2022/04/29 07:00:09;;;;;;;3.78;3.47;;;;;;;32.69;59.27;100535.31;5037271;28;70076;-34
2022/04/29 07:02:39;;;;;;;3.72;3.53;;;;;;;32.74;59.48;100537.31;5023319;28;66003;-33
2022/04/29 07:05:10;;;;;;;3.70;3.50;;;;;;;32.71;59.67;100522.34;5040253;28;69075;-34
2022/04/29 07:07:40;;;;;;;3.53;3.33;;;;;;;32.77;59.47;100521.34;5055567;28;66738;-33
2022/04/29 07:10:42;;;;;;;3.15;2.95;;;;;;;32.76;59.29;100516.97;5027599;28;70601;-34
2022/04/29 07:13:39;;;;;;;3.83;3.58;;;;;;;32.77;59.35;100505.06;5023492;28;66281;-33
2022/04/29 07:16:11;;;;;;;4.00;3.80;;;;;;;32.80;59.17;100510.00;5048333;28;70074;-33
2022/04/29 07:18:59;;;;;;;4.03;3.78;;;;;;;32.64;59.21;100472.75;5041391;28;66592;-33
2022/04/29 07:21:30;;;;;;;3.85;3.55;;;;;;;32.84;59.54;100499.47;5022439;28;68783;-33
2022/04/29 07:24:03;;;;;;;3.97;3.78;;;;;;;32.84;59.07;100497.56;5040006;28;66324;-33
2022/04/29 07:26:39;;;;;;;4.20;3.90;;;;;;;32.84;59.13;100497.56;5056394;28;70504;-34
2022/04/29 07:29:13;;;;;;;3.85;3.58;;;;;;;32.86;59.21;100506.31;5037188;28;66400;-33
2022/04/29 07:31:49;;;;;;;3.65;3.45;;;;;;;32.58;59.34;100457.44;5039648;28;69920;-34
2022/04/29 07:43:47;;;;;;;4.68;4.38;;;;;;;32.92;59.25;100485.50;5038240;28;71152;-33
2022/04/29 07:46:19;;;;;;;3.83;3.53;;;;;;;32.80;59.21;100461.13;5039127;28;66292;-33
2022/04/29 07:48:52;;;;;;;3.95;3.75;;;;;;;32.94;58.84;100478.75;5039431;28;70143;-33
2022/04/29 07:51:24;;;;;;;4.53;4.05;;;;;;;32.91;59.34;100473.81;5038484;28;65173;-33
2022/04/29 07:53:55;;;;;;;4.28;4.05;;;;;;;32.97;59.12;100474.72;5040549;28;69495;-34
2022/04/29 07:56:25;;;;;;;3.80;3.60;;;;;;;32.91;59.09;100467.56;5039291;28;65488;-33
2022/04/29 07:59:02;;;;;;;4.35;4.10;;;;;;;32.93;59.19;100465.41;5021720;28;70388;-33
2022/04/29 08:01:36;;;;;;;3.78;3.58;;;;;;;32.94;58.92;100462.44;5037868;28;66700;-33
2022/04/29 08:04:07;;;;;;;4.53;4.22;;;;;;;32.97;58.69;100466.56;5039566;28;70101;-33
2022/04/29 08:06:39;;;;;;;4.97;4.00;;;;;;;33.02;58.84;100471.31;5038358;28;66580;-33
2022/04/29 08:09:31;;;;;;;4.32;4.03;;;;;;;32.99;58.63;100463.59;5022182;28;69232;-33
2022/04/29 08:12:10;;;;;;;4.20;3.90;;;;;;;32.97;58.61;100454.88;5038078;28;66683;-33
2022/04/29 08:15:12;;;;;;;;;;;;;;;32.70;59.40;100467.16;5038901;28;70142;-33
2022/04/29 08:17:57;;;;;;;3.95;3.63;;;;;;;33.00;58.89;100466.13;5019553;28;66629;-34
2022/04/29 08:20:27;;;;;;;4.38;4.07;;;;;;;33.04;58.80;100471.88;5034183;28;70110;-34
2022/04/29 08:22:59;;;;;;;4.40;4.10;;;;;;;33.02;58.51;100458.56;5003015;28;66108;-33
2022/04/29 08:25:29;;;;;;;5.73;4.63;;;;;;;32.99;58.87;100460.88;5018225;28;71920;-34
2022/04/29 08:28:00;;;;;;;4.80;4.50;;;;;;;32.96;58.61;100454.06;5022114;28;66229;-33
2022/04/29 08:30:31;;;;;;;4.53;4.25;;;;;;;33.04;58.59;100461.00;5039967;28;70566;-33
2022/04/29 08:33:01;;;;;;;4.68;4.40;;;;;;;32.91;58.80;100441.22;5037593;28;66947;-32
2022/04/29 08:35:42;;;;;;;5.03;4.60;;;;;;;33.02;58.70;100449.59;5038270;28;69366;-33
2022/04/29 08:38:14;;;;;;;4.70;4.40;;;;;;;33.05;58.73;100459.97;5038958;28;65440;-34
2022/04/29 08:40:49;;;;;;;4.90;4.60;;;;;;;33.05;58.45;100457.25;5037906;28;69760;-34
2022/04/29 08:43:25;;;;;;;5.20;4.90;;;;;;;32.97;58.56;100444.03;5038343;28;65681;-33
2022/04/29 08:46:01;;;;;;;4.75;4.45;;;;;;;33.04;58.31;100444.69;5037213;28;70079;-33
2022/04/29 08:48:50;;;;;;;5.43;5.07;;;;;;;32.97;58.76;100444.03;5039376;28;66489;-33
2022/04/29 08:51:21;;;;;;;5.03;4.63;;;;;;;33.03;58.81;100437.63;5038576;28;70122;-34
2022/04/29 08:53:51;;;;;;;4.80;4.50;;;;;;;33.03;58.66;100432.19;5039002;28;66232;-33
2022/04/29 08:59:10;;;;;;;5.00;4.70;;;;;;;33.02;58.81;100431.38;5039489;28;65571;-33
2022/04/29 09:01:43;;;;;;;5.28;4.97;;;;;;;33.04;58.88;100433.84;5039021;28;70290;-34
2022/04/29 09:04:13;;;;;;;5.32;5.03;;;;;;;33.02;58.61;100444.97;5037803;28;66751;-33
2022/04/29 09:06:50;;;;;;;5.55;5.25;;;;;;;32.90;58.66;100420.56;5039874;28;69954;-34
2022/04/29 09:09:21;;;;;;;4.70;4.50;;;;;;;33.00;58.83;100425.34;5038844;28;65481;-33
2022/04/29 09:12:18;;;;;;;5.00;4.78;;;;;;;32.92;58.77;100437.41;5039306;28;70035;-33
2022/04/29 09:14:48;;;;;;;5.35;5.05;;;;;;;32.97;58.83;100427.72;5042012;28;66387;-33
2022/04/29 09:17:28;;;;;;;5.80;5.35;;;;;;;33.00;58.66;100443.56;5037189;28;69952;-33
2022/04/29 09:19:58;;;;;;;5.38;5.07;;;;;;;32.91;58.55;100429.53;5023262;28;66207;-33
2022/04/29 09:22:32;;;;;;;5.10;4.80;;;;;;;32.56;58.35;100367.25;5022386;28;69875;-33
2022/04/29 09:25:14;;;;;;;5.93;5.38;;;;;;;32.92;58.34;100426.53;5022101;28;66453;-34
2022/04/29 09:28:05;;;;;;;;;;;;;;;32.68;59.27;100433.16;5009650;28;69048;-34
2022/04/29 09:30:56;;;;;;;5.07;4.68;;;;;;;32.99;58.74;100436.44;5031117;28;66597;-33
2022/04/29 09:34:02;;;;;;;4.90;4.60;;;;;;;33.01;58.66;100434.31;5020921;28;70259;-34
2022/04/29 09:36:44;;;;;;;4.88;4.57;;;;;;;33.01;58.49;100442.47;5024752;28;66151;-33
2022/04/29 09:39:34;;;;;;;4.80;4.50;;;;;;;33.02;58.67;100436.81;5041451;28;70247;-33
2022/04/29 09:42:09;;;;;;;4.85;4.53;;;;;;;33.03;58.42;100422.16;5042496;28;65547;-34
2022/04/29 09:44:40;;;;;;;5.43;5.13;;;;;;;32.96;58.69;100421.47;5042651;28;69307;-34
2022/04/29 09:47:12;;;;;;;5.13;4.55;;;;;;;33.00;58.83;100436.22;5041935;28;65557;-33
2022/04/29 09:49:59;;;;;;;5.43;5.13;;;;;;;32.38;58.72;100344.63;5041460;28;70185;-33
2022/04/29 09:52:32;;;;;;;4.57;4.28;;;;;;;32.87;58.51;100434.59;5040844;28;65235;-34
2022/04/29 09:55:18;;;;;;;4.30;4.00;;;;;;;32.41;58.62;100363.16;5042732;28;70219;-34
2022/04/29 09:57:59;;;;;;;4.70;4.38;;;;;;;32.97;58.93;100463.03;5039203;28;65514;-35
2022/04/29 10:00:29;;;;;;;5.13;4.75;;;;;;;32.93;58.79;100454.53;5039297;28;69620;-35
2022/04/29 10:03:03;;;;;;;4.07;3.78;;;;;;;32.96;58.75;100461.38;5040202;28;66233;-34
2022/04/29 10:05:35;;;;;;;6.32;5.82;;;;;;;32.89;59.68;100448.78;5041026;28;70110;-37
2022/04/29 10:08:08;;;;;;;6.97;6.30;;;;;;;32.84;60.87;100454.09;5021899;28;66501;-34
2022/04/29 10:10:39;;;;;;;9.88;5.93;;;;;;;32.77;61.93;100458.88;5040571;28;70462;-36
2022/04/29 10:13:12;;;;;;;7.22;6.53;;;;;;;32.74;62.40;100467.53;5026926;28;66167;-36
2022/04/29 10:15:42;;;;;;;;;;;;;;;32.39;63.83;100467.59;5032569;28;69909;-35
2022/04/29 10:22:09;;;;;;;12.80;6.90;;;;;;;32.56;63.75;100475.84;5033350;28;69026;-36
2022/04/29 10:24:43;;;;;;;11.93;6.70;;;;;;;32.51;63.78;100457.56;5033248;28;65131;-35
2022/04/29 10:27:15;;;;;;;6.63;6.10;;;;;;;32.43;63.88;100458.75;5031419;28;69923;-35
2022/04/29 10:29:45;;;;;;;7.07;6.63;;;;;;;32.45;64.28;100475.59;5035030;28;66708;-34
2022/04/29 10:32:15;;;;;;;11.73;6.78;;;;;;;32.47;64.39;100491.69;5033358;28;70076;-36
2022/04/29 10:34:46;;;;;;;8.55;6.55;;;;;;;32.49;64.58;100506.69;5037110;28;66389;-35
2022/04/29 10:37:17;;;;;;;11.60;7.60;;;;;;;32.47;64.74;100506.09;5032177;28;69966;-34
2022/04/29 10:40:08;;;;;;;11.95;8.50;;;;;;;32.40;65.29;100504.53;5035258;28;66087;-36
2022/04/29 10:43:06;;;;;;;11.27;10.07;;;;;;;32.37;65.91;100511.28;5039503;28;70114;-36
2022/04/29 10:46:06;;;;;;;17.58;15.45;;;;;;;32.36;66.37;100511.53;5041294;28;65572;-35
2022/04/29 10:48:49;;;;;;;36.35;25.10;;;;;;;32.45;66.26;100510.06;5021921;28;69954;-35
2022/04/29 10:51:47;;;;;;;51.97;35.83;;;;;;;32.38;67.01;100510.22;5041342;28;66654;-36
2022/04/29 10:54:42;;;;;;;56.38;41.30;;;;;;;32.36;67.69;100509.63;5040401;28;70265;-34
2022/04/29 10:57:46;;;;;;;60.43;42.23;;;;;;;32.39;67.98;100520.00;5015108;28;65290;-35
2022/04/29 11:00:23;;;;;;;64.47;40.70;;;;;;;32.36;67.76;100525.91;5018340;28;68386;-34
2022/04/29 11:03:37;;;;;;;58.63;35.85;;;;;;;32.28;68.34;100529.00;5036252;28;66467;-35
2022/04/29 11:06:13;;;;;;;43.35;29.13;;;;;;;32.36;67.87;100525.09;5040036;28;70260;-35
2022/04/29 11:08:44;;;;;;;41.83;28.13;;;;;;;32.21;68.23;100501.19;5039588;28;66301;-36
2022/04/29 11:11:14;;;;;;;36.58;25.65;;;;;;;32.26;68.14;100520.25;5041419;28;69578;-35
2022/04/29 11:14:04;;;;;;;30.52;23.90;;;;;;;32.33;67.95;100529.13;5039758;28;65944;-35
2022/04/29 11:17:15;;;;;;;27.48;22.30;;;;;;;31.82;68.27;100452.81;5034773;28;70158;-34
2022/04/29 11:19:48;;;;;;;25.85;22.00;;;;;;;32.28;68.21;100534.44;5039639;28;65969;-35
2022/04/29 11:25:10;;;;;;;21.23;19.02;;;;;;;32.28;68.25;100546.09;5040914;28;66247;-35
2022/04/29 11:27:58;;;;;;;24.65;19.25;;;;;;;32.28;68.12;100551.53;5035970;28;70198;-35
2022/04/29 11:30:48;;;;;;;19.80;17.70;;;;;;;32.17;68.48;100565.94;5032921;28;65501;-35
2022/04/29 11:33:28;;;;;;;18.67;16.77;;;;;;;32.20;68.47;100576.31;5022160;28;70072;-34
2022/04/29 11:36:12;;;;;;;15.40;14.02;;;;;;;31.80;68.14;100506.47;5024565;28;65434;-33
2022/04/29 11:38:47;;;;;;;14.07;12.77;;;;;;;31.78;67.94;100496.91;5026595;28;70036;-34
2022/04/29 11:41:24;;;;;;;13.18;12.15;;;;;;;32.35;67.92;100578.56;5039246;28;66537;-35
2022/04/29 11:43:54;;;;;;;14.13;12.60;;;;;;;32.36;67.79;100580.22;5033604;28;69313;-35
2022/04/29 11:46:24;;;;;;;14.13;12.90;;;;;;;32.43;67.42;100594.50;5031217;28;66353;-35
2022/04/29 11:48:58;;;;;;;14.55;13.30;;;;;;;32.49;67.35;100590.84;5043369;28;70730;-35
2022/04/29 11:51:30;;;;;;;13.95;12.55;;;;;;;32.54;67.23;100592.88;5029304;28;66021;-35
2022/04/29 11:54:04;;;;;;;23.45;12.88;;;;;;;32.60;67.32;100601.94;5034126;28;69711;-35
2022/04/29 11:56:37;;;;;;;15.60;11.85;;;;;;;32.58;67.50;100593.19;5019406;28;65598;-35
2022/04/29 11:59:12;;;;;;;13.73;12.07;;;;;;;32.63;67.02;100601.47;5055348;28;69634;-34
2022/04/29 12:01:42;;;;;;;12.52;11.35;;;;;;;32.64;67.36;100608.53;5032618;28;66820;-34
2022/04/29 12:04:13;;;;;;;12.70;11.55;;;;;;;32.67;66.97;100608.06;5037929;28;70364;-35
2022/04/29 12:06:57;;;;;;;12.70;11.40;;;;;;;32.63;67.59;100617.75;5038856;28;66763;-35
2022/04/29 12:09:35;;;;;;;14.55;11.73;;;;;;;32.70;67.45;100626.59;5020598;28;69089;-35
2022/04/29 12:12:25;;;;;;;17.40;13.57;;;;;;;32.59;68.22;100632.84;5049819;28;65644;-35
2022/04/29 12:14:59;;;;;;;15.40;13.23;;;;;;;32.30;67.79;100592.03;5027769;28;70130;-35
2022/04/29 12:17:33;;;;;;;13.82;12.48;;;;;;;32.52;68.15;100637.59;5028247;28;66046;-35
2022/04/29 12:20:06;;;;;;;14.10;12.73;;;;;;;32.38;68.50;100637.81;5037298;28;70295;-35
2022/04/29 12:22:39;;;;;;;13.80;12.38;;;;;;;32.30;68.76;100649.00;5028690;28;65544;-34